Terminal Aerodrome Forecast
Issued by NWS Cleveland, OH

Home | Current Version | Previous Version | Text Only | Print | Product List | Glossary On
Versions: 1 2 3 4 5 6 7 8 9 10 11 12 13 14
000
FTUS41 KCLE 291728
TAFERI
TAF
KERI 291728Z 2918/3018 20009KT P6SM OVC200
      TEMPO 2921/2922 -SHRA OVC120
     FM292200 20006KT P6SM SKC
     FM300000 VRB03KT P6SM SKC
     FM301300 26007KT P6SM SKC=

USA.gov is the U.S. government's official web portal to all federal, state and local government web resources and services.